Time;durP1;ratioP1;P1;durP2;ratioP2;P2;SDS_P1;SDS_P2;PMS_P1;PMS_P2;Temp;Humidity;BMP_temperature;BMP_pressure;BME280_temperature;BME280_humidity;BME280_pressure;Samples;Min_cycle;Max_cycle;Signal;HPM_P1;HPM_P2
2022/05/01 00:00:19;;;;;;;1.45;1.40;;;;;;;;;;1842098;77;26286;-45
2022/05/01 00:02:47;;;;;;;1.30;1.30;;;;;;;;;;1827780;77;26619;-47
2022/05/01 00:05:15;;;;;;;1.20;1.10;;;;;;;;;;1841215;77;26285;-51
2022/05/01 00:07:43;;;;;;;1.20;1.20;;;;;;;;;;1833949;77;27460;-47
2022/05/01 00:10:10;;;;;;;1.20;1.20;;;;;;;;;;1842453;77;26418;-47
2022/05/01 00:12:38;;;;;;;1.15;1.15;;;;;;;;;;1839720;77;26866;-44
2022/05/01 00:15:06;;;;;;;1.20;1.20;;;;;;;;;;1845129;76;26346;-48
2022/05/01 00:17:33;;;;;;;1.30;1.30;;;;;;;;;;1848247;76;26293;-45
2022/05/01 00:20:00;;;;;;;1.20;1.20;;;;;;;;;;1840791;77;26269;-46
2022/05/01 00:22:28;;;;;;;1.35;1.35;;;;;;;;;;1831056;77;26301;-47
2022/05/01 00:24:55;;;;;;;1.20;1.20;;;;;;;;;;1840895;77;26249;-46
2022/05/01 00:27:22;;;;;;;1.30;1.30;;;;;;;;;;1841470;77;26294;-47
2022/05/01 00:29:50;;;;;;;1.20;1.20;;;;;;;;;;1849918;76;26344;-46
2022/05/01 00:32:17;;;;;;;1.20;1.20;;;;;;;;;;1842072;77;26335;-43
2022/05/01 00:37:30;;;;;;;1.27;1.27;;;;;;;;;;1839218;77;26404;-43
2022/05/01 00:39:57;;;;;;;1.20;1.20;;;;;;;;;;1836107;76;26346;-45
2022/05/01 00:42:25;;;;;;;1.10;1.10;;;;;;;;;;1842304;78;26253;-47
2022/05/01 00:44:52;;;;;;;1.30;1.30;;;;;;;;;;1842307;76;26245;-44
2022/05/01 00:47:19;;;;;;;2.15;1.72;;;;;;;;;;1841369;78;26304;-48
2022/05/01 00:49:47;;;;;;;1.20;1.20;;;;;;;;;;1842916;77;26249;-48
2022/05/01 00:52:15;;;;;;;1.20;1.20;;;;;;;;;;1847637;76;26281;-43
2022/05/01 00:54:43;;;;;;;1.20;1.20;;;;;;;;;;1853802;76;26257;-45
2022/05/01 00:57:11;;;;;;;1.22;1.22;;;;;;;;;;1839360;77;26583;-47
2022/05/01 00:59:38;;;;;;;1.27;1.27;;;;;;;;;;1840462;77;26359;-44
2022/05/01 01:02:07;;;;;;;1.20;1.20;;;;;;;;;;1841793;76;26753;-46
2022/05/01 01:04:34;;;;;;;1.00;1.00;;;;;;;;;;1841435;77;26316;-44
2022/05/01 01:07:03;;;;;;;1.20;1.20;;;;;;;;;;1841948;77;26269;-51
2022/05/01 01:09:30;;;;;;;1.10;1.07;;;;;;;;;;1841687;77;27013;-45
2022/05/01 01:14:42;;;;;;;1.22;1.12;;;;;;;;;;1831954;76;26773;-45
2022/05/01 01:17:10;;;;;;;1.10;1.10;;;;;;;;;;1825557;76;26738;-43
2022/05/01 01:19:38;;;;;;;1.27;1.27;;;;;;;;;;1822828;77;26271;-46
2022/05/01 01:22:07;;;;;;;1.00;1.00;;;;;;;;;;1840272;77;26818;-47
2022/05/01 01:24:36;;;;;;;1.30;1.30;;;;;;;;;;1848130;76;26263;-48
2022/05/01 01:27:04;;;;;;;1.22;1.20;;;;;;;;;;1841317;77;26258;-47
2022/05/01 01:32:18;;;;;;;1.05;1.05;;;;;;;;;;1823839;78;26305;-46
2022/05/01 01:34:47;;;;;;;1.25;1.20;;;;;;;;;;1839729;78;26242;-44
2022/05/01 01:37:16;;;;;;;1.22;1.22;;;;;;;;;;1839553;76;26254;-48
2022/05/01 01:39:44;;;;;;;1.10;1.10;;;;;;;;;;1827835;78;26242;-46
2022/05/01 01:42:12;;;;;;;1.10;1.10;;;;;;;;;;1839959;78;26297;-44
2022/05/01 01:44:39;;;;;;;1.10;1.10;;;;;;;;;;1839772;78;26305;-47
2022/05/01 01:47:07;;;;;;;1.25;1.25;;;;;;;;;;1824061;76;26274;-48
2022/05/01 01:49:35;;;;;;;1.20;1.20;;;;;;;;;;1833478;78;26709;-48
2022/05/01 01:52:02;;;;;;;1.10;1.10;;;;;;;;;;1821254;78;26267;-45
2022/05/01 01:54:29;;;;;;;1.30;1.30;;;;;;;;;;1839718;78;26187;-46
2022/05/01 01:56:57;;;;;;;1.27;1.27;;;;;;;;;;1839492;77;26258;-48
2022/05/01 01:59:24;;;;;;;1.17;1.17;;;;;;;;;;1832287;76;26351;-48
2022/05/01 02:01:51;;;;;;;1.10;1.10;;;;;;;;;;1839652;78;26254;-44
2022/05/01 02:04:18;;;;;;;1.20;1.20;;;;;;;;;;1833581;76;26276;-44
2022/05/01 02:06:46;;;;;;;1.15;1.15;;;;;;;;;;1833591;78;26230;-45
2022/05/01 02:09:15;;;;;;;1.20;1.15;;;;;;;;;;1839982;78;26293;-45
2022/05/01 02:11:42;;;;;;;1.10;1.10;;;;;;;;;;1839501;76;26722;-47
2022/05/01 02:14:14;;;;;;;1.10;1.10;;;;;;;;;;1830996;78;26269;-44
2022/05/01 02:16:39;;;;;;;0.95;0.95;;;;;;;;;;1839179;77;26336;-47
2022/05/01 02:19:07;;;;;;;1.05;1.05;;;;;;;;;;1839701;78;26250;-46
2022/05/01 02:21:35;;;;;;;1.40;1.30;;;;;;;;;;1831353;78;26632;-44
2022/05/01 02:24:09;;;;;;;1.00;1.00;;;;;;;;;;1838966;78;26278;-43
2022/05/01 02:26:37;;;;;;;0.95;0.95;;;;;;;;;;1838773;78;26352;-45
2022/05/01 02:29:09;;;;;;;1.20;1.20;;;;;;;;;;1841914;76;26611;-46
2022/05/01 02:31:34;;;;;;;1.15;1.15;;;;;;;;;;1834164;77;27519;-50
2022/05/01 02:34:02;;;;;;;1.07;1.07;;;;;;;;;;1840063;77;26774;-51
2022/05/01 02:36:29;;;;;;;1.07;1.07;;;;;;;;;;1841960;77;26360;-47
2022/05/01 02:38:57;;;;;;;1.25;1.25;;;;;;;;;;1832233;77;26256;-47
2022/05/01 02:41:27;;;;;;;1.10;1.10;;;;;;;;;;1831483;77;26757;-50
2022/05/01 02:43:56;;;;;;;1.00;1.00;;;;;;;;;;1843918;76;26650;-46
2022/05/01 02:46:25;;;;;;;1.05;1.05;;;;;;;;;;1859799;76;26255;-51
2022/05/01 02:48:53;;;;;;;1.00;1.00;;;;;;;;;;1841167;77;26281;-44
2022/05/01 02:51:21;;;;;;;0.90;0.90;;;;;;;;;;1841299;77;27018;-46
2022/05/01 02:53:48;;;;;;;1.00;1.00;;;;;;;;;;1838401;76;26265;-49
2022/05/01 02:56:16;;;;;;;1.00;1.00;;;;;;;;;;1829505;77;26299;-49
2022/05/01 02:58:43;;;;;;;0.90;0.90;;;;;;;;;;1831448;77;27495;-46
2022/05/01 03:01:10;;;;;;;1.22;1.10;;;;;;;;;;1841861;77;26792;-44
2022/05/01 03:03:38;;;;;;;1.02;1.02;;;;;;;;;;1841388;76;26261;-44
2022/05/01 03:06:05;;;;;;;1.10;1.10;;;;;;;;;;1840361;76;26257;-48
2022/05/01 03:08:32;;;;;;;0.95;0.95;;;;;;;;;;1841863;77;26966;-47
2022/05/01 03:11:01;;;;;;;1.00;1.00;;;;;;;;;;1841023;77;26301;-48
2022/05/01 03:13:29;;;;;;;1.00;1.00;;;;;;;;;;1836276;77;26821;-47
2022/05/01 03:15:56;;;;;;;1.07;1.07;;;;;;;;;;1843781;76;26277;-48
2022/05/01 03:23:54;;;;;;;1.10;1.10;;;;;;;;;;1828978;77;26285;-45
2022/05/01 03:26:22;;;;;;;1.45;0.98;;;;;;;;;;1840574;77;26944;-50
2022/05/01 03:28:49;;;;;;;0.82;0.82;;;;;;;;;;1830423;76;26737;-49
2022/05/01 03:31:16;;;;;;;1.67;0.98;;;;;;;;;;1837833;77;26290;-46
2022/05/01 03:33:44;;;;;;;1.10;1.10;;;;;;;;;;1836672;77;26935;-50
2022/05/01 03:36:12;;;;;;;1.00;1.00;;;;;;;;;;1827537;77;27224;-44
2022/05/01 03:38:41;;;;;;;1.00;1.00;;;;;;;;;;1846315;76;26241;-43
2022/05/01 03:41:09;;;;;;;1.00;1.00;;;;;;;;;;1824273;76;26261;-47
2022/05/01 03:43:38;;;;;;;1.80;1.00;;;;;;;;;;1835156;77;26610;-46
2022/05/01 03:46:05;;;;;;;0.98;0.98;;;;;;;;;;1848180;76;26273;-45
2022/05/01 03:48:33;;;;;;;1.00;1.00;;;;;;;;;;1829780;77;26259;-46
2022/05/01 03:51:01;;;;;;;1.00;1.00;;;;;;;;;;1849034;76;26324;-43
2022/05/01 03:53:33;;;;;;;1.00;1.00;;;;;;;;;;1841176;77;26385;-43
2022/05/01 03:55:58;;;;;;;0.98;0.98;;;;;;;;;;1842102;77;26450;-47
2022/05/01 03:58:25;;;;;;;1.00;1.00;;;;;;;;;;1836439;76;26328;-50
2022/05/01 04:00:53;;;;;;;1.00;1.00;;;;;;;;;;1839892;76;26823;-48
2022/05/01 04:03:20;;;;;;;1.00;1.00;;;;;;;;;;1838902;76;26768;-48
2022/05/01 04:05:48;;;;;;;1.02;1.02;;;;;;;;;;1841853;77;26230;-47
2022/05/01 04:08:16;;;;;;;1.02;1.02;;;;;;;;;;1841480;77;26331;-45
2022/05/01 04:10:43;;;;;;;0.90;0.90;;;;;;;;;;1841540;77;26726;-47
2022/05/01 04:13:12;;;;;;;1.07;1.07;;;;;;;;;;1838385;76;26292;-43
2022/05/01 04:15:41;;;;;;;0.95;0.95;;;;;;;;;;1826883;77;26272;-47
2022/05/01 04:18:09;;;;;;;0.98;0.98;;;;;;;;;;1842408;77;26351;-46
2022/05/01 04:20:40;;;;;;;0.93;0.93;;;;;;;;;;1840954;77;26277;-43
2022/05/01 04:23:07;;;;;;;0.95;0.95;;;;;;;;;;1841816;77;26344;-47
2022/05/01 04:25:35;;;;;;;1.27;1.17;;;;;;;;;;1846217;76;26281;-43
2022/05/01 04:28:07;;;;;;;0.90;0.90;;;;;;;;;;1851112;76;26235;-43
2022/05/01 04:30:34;;;;;;;0.98;0.98;;;;;;;;;;1865159;76;26292;-43
2022/05/01 04:33:06;;;;;;;0.90;0.90;;;;;;;;;;1840109;77;26735;-46
2022/05/01 04:35:34;;;;;;;0.90;0.90;;;;;;;;;;1842385;76;26363;-46
2022/05/01 04:38:07;;;;;;;0.95;0.95;;;;;;;;;;1841526;77;26335;-46
2022/05/01 04:40:35;;;;;;;0.90;0.90;;;;;;;;;;1842752;77;26262;-46
2022/05/01 04:43:04;;;;;;;1.00;1.00;;;;;;;;;;1842283;77;26245;-45
2022/05/01 04:45:32;;;;;;;0.98;0.98;;;;;;;;;;1841938;76;27281;-46
2022/05/01 04:47:59;;;;;;;0.88;0.88;;;;;;;;;;1842189;76;26307;-48
2022/05/01 04:50:27;;;;;;;0.90;0.90;;;;;;;;;;1841999;77;26739;-45
2022/05/01 04:52:54;;;;;;;0.85;0.85;;;;;;;;;;1841157;77;26274;-46
2022/05/01 04:55:22;;;;;;;0.90;0.90;;;;;;;;;;1830456;77;26284;-46
2022/05/01 04:57:50;;;;;;;0.98;0.98;;;;;;;;;;1850451;76;26305;-45
2022/05/01 05:00:20;;;;;;;0.90;0.90;;;;;;;;;;1847778;76;26261;-48
2022/05/01 05:02:49;;;;;;;0.90;0.90;;;;;;;;;;1841227;77;26336;-45
2022/05/01 05:05:17;;;;;;;0.88;0.88;;;;;;;;;;1840468;77;26591;-47
2022/05/01 05:07:44;;;;;;;0.70;0.70;;;;;;;;;;1838431;77;26261;-45
2022/05/01 05:10:12;;;;;;;0.82;0.82;;;;;;;;;;1834636;76;26829;-46
2022/05/01 05:12:42;;;;;;;2.47;0.80;;;;;;;;;;1830624;77;26303;-46
2022/05/01 05:15:10;;;;;;;0.82;0.80;;;;;;;;;;1844043;76;26275;-44
2022/05/01 05:17:38;;;;;;;0.95;0.82;;;;;;;;;;1841930;77;26266;-43
2022/05/01 05:20:07;;;;;;;0.90;0.90;;;;;;;;;;1843573;76;26242;-46
2022/05/01 05:22:34;;;;;;;0.68;0.68;;;;;;;;;;1841924;77;26251;-45
2022/05/01 05:25:03;;;;;;;1.00;1.00;;;;;;;;;;1837417;77;26266;-43
2022/05/01 05:27:30;;;;;;;0.72;0.72;;;;;;;;;;1841583;77;26758;-46
2022/05/01 05:29:57;;;;;;;0.80;0.80;;;;;;;;;;1838797;76;26393;-45
2022/05/01 05:32:26;;;;;;;0.68;0.68;;;;;;;;;;1838461;76;26273;-46
2022/05/01 05:34:53;;;;;;;1.55;0.80;;;;;;;;;;1830951;77;26274;-52
2022/05/01 05:37:20;;;;;;;0.80;0.75;;;;;;;;;;1833935;76;26264;-52
2022/05/01 05:39:49;;;;;;;0.70;0.70;;;;;;;;;;1834003;76;26264;-48
2022/05/01 05:42:18;;;;;;;1.42;0.80;;;;;;;;;;1834601;76;26646;-47
2022/05/01 05:44:45;;;;;;;0.88;0.88;;;;;;;;;;1839262;77;26308;-44
2022/05/01 05:47:13;;;;;;;0.78;0.78;;;;;;;;;;1837669;77;26266;-46
2022/05/01 05:49:40;;;;;;;0.70;0.70;;;;;;;;;;1830793;78;26258;-45
2022/05/01 05:52:07;;;;;;;3.40;0.78;;;;;;;;;;1834175;78;25797;-49
2022/05/01 05:54:34;;;;;;;2.92;1.00;;;;;;;;;;1839920;76;26287;-50
2022/05/01 05:57:02;;;;;;;8.05;1.07;;;;;;;;;;1839251;78;26312;-52
2022/05/01 05:59:29;;;;;;;4.45;0.82;;;;;;;;;;1836313;77;26336;-49
2022/05/01 06:01:56;;;;;;;1.17;0.82;;;;;;;;;;1835213;78;26257;-52
2022/05/01 06:04:24;;;;;;;0.80;0.80;;;;;;;;;;1837205;77;26828;-54
2022/05/01 06:06:51;;;;;;;1.92;0.78;;;;;;;;;;1838817;76;26259;-55
2022/05/01 06:09:18;;;;;;;4.15;0.70;;;;;;;;;;1838833;78;26282;-50
2022/05/01 06:11:46;;;;;;;2.55;1.05;;;;;;;;;;1838106;78;26226;-50
2022/05/01 06:14:13;;;;;;;2.05;0.90;;;;;;;;;;1834693;78;26375;-52
2022/05/01 06:16:40;;;;;;;2.85;0.70;;;;;;;;;;1854826;76;26778;-53
2022/05/01 06:19:07;;;;;;;0.70;0.70;;;;;;;;;;1840490;76;27376;-55
2022/05/01 06:21:35;;;;;;;2.83;0.90;;;;;;;;;;1829446;78;27135;-55
2022/05/01 06:24:02;;;;;;;1.65;0.78;;;;;;;;;;1840047;78;26347;-56
2022/05/01 06:26:29;;;;;;;1.87;0.78;;;;;;;;;;1838020;78;26325;-53
2022/05/01 06:28:59;;;;;;;0.85;0.85;;;;;;;;;;1833831;76;26334;-56
2022/05/01 06:31:26;;;;;;;0.78;0.60;;;;;;;;;;1834037;76;26245;-50
2022/05/01 06:33:54;;;;;;;0.70;0.70;;;;;;;;;;1834670;78;26742;-48
2022/05/01 06:36:21;;;;;;;1.25;0.70;;;;;;;;;;1837143;78;26324;-50
2022/05/01 06:38:49;;;;;;;1.25;0.80;;;;;;;;;;1836705;76;26642;-52
2022/05/01 06:41:16;;;;;;;0.75;0.68;;;;;;;;;;1838338;78;26254;-54
2022/05/01 06:43:43;;;;;;;1.80;0.60;;;;;;;;;;1834092;78;26328;-52
2022/05/01 06:46:11;;;;;;;2.90;1.05;;;;;;;;;;1839122;76;26259;-50
2022/05/01 06:48:38;;;;;;;1.70;0.80;;;;;;;;;;1848663;76;26255;-52
2022/05/01 06:51:06;;;;;;;0.60;0.60;;;;;;;;;;1839067;76;26709;-54
2022/05/01 06:53:34;;;;;;;4.62;0.90;;;;;;;;;;1838476;78;26286;-55
2022/05/01 06:56:01;;;;;;;0.98;0.78;;;;;;;;;;1838708;78;26780;-51
2022/05/01 06:58:28;;;;;;;1.22;0.80;;;;;;;;;;1840059;76;26339;-52
2022/05/01 07:00:56;;;;;;;2.77;0.72;;;;;;;;;;1841743;77;26242;-51
2022/05/01 07:03:23;;;;;;;2.15;0.82;;;;;;;;;;1838306;76;26262;-52
2022/05/01 07:05:51;;;;;;;0.80;0.70;;;;;;;;;;1839774;78;26192;-49
2022/05/01 07:08:19;;;;;;;2.22;0.68;;;;;;;;;;1839464;78;26344;-52
2022/05/01 07:10:46;;;;;;;1.37;0.60;;;;;;;;;;1838738;77;26690;-52
2022/05/01 07:13:14;;;;;;;1.35;0.85;;;;;;;;;;1839036;78;26266;-56
2022/05/01 07:15:41;;;;;;;0.60;0.60;;;;;;;;;;1849536;76;26176;-49
2022/05/01 07:18:08;;;;;;;1.72;0.78;;;;;;;;;;1835413;76;26371;-56
2022/05/01 07:20:36;;;;;;;1.80;0.70;;;;;;;;;;1837345;78;26333;-52
2022/05/01 07:23:04;;;;;;;1.80;0.78;;;;;;;;;;1837739;78;26234;-52
2022/05/01 07:25:32;;;;;;;1.80;0.60;;;;;;;;;;1831663;76;26321;-52
2022/05/01 07:27:59;;;;;;;4.15;0.50;;;;;;;;;;1836628;78;26261;-52
2022/05/01 07:30:27;;;;;;;0.40;0.40;;;;;;;;;;1834553;76;26286;-54
2022/05/01 07:32:54;;;;;;;2.35;1.17;;;;;;;;;;1840392;77;26247;-51
2022/05/01 07:35:21;;;;;;;0.65;0.65;;;;;;;;;;1840214;76;26316;-53
2022/05/01 07:37:49;;;;;;;0.60;0.60;;;;;;;;;;1840722;77;26324;-49
2022/05/01 07:40:17;;;;;;;3.15;0.70;;;;;;;;;;1842501;77;26329;-50
2022/05/01 07:42:44;;;;;;;0.50;0.50;;;;;;;;;;1839984;76;26500;-52
2022/05/01 07:45:11;;;;;;;0.60;0.60;;;;;;;;;;1833554;76;26630;-53
2022/05/01 07:47:38;;;;;;;0.50;0.50;;;;;;;;;;1841781;77;26234;-52
2022/05/01 07:50:06;;;;;;;1.67;0.55;;;;;;;;;;1838353;77;26251;-54
2022/05/01 07:52:34;;;;;;;0.80;0.70;;;;;;;;;;1838897;76;26579;-43
2022/05/01 07:55:02;;;;;;;3.05;0.70;;;;;;;;;;1829532;77;26726;-46
2022/05/01 07:57:30;;;;;;;2.52;0.72;;;;;;;;;;1839416;76;26327;-46
2022/05/01 07:59:57;;;;;;;2.70;0.70;;;;;;;;;;1846942;76;26599;-42
2022/05/01 08:02:25;;;;;;;0.75;0.75;;;;;;;;;;1834236;76;26331;-48
2022/05/01 08:04:52;;;;;;;1.37;0.90;;;;;;;;;;1841258;76;26267;-48
2022/05/01 08:07:19;;;;;;;0.95;0.65;;;;;;;;;;1836106;77;26254;-46
2022/05/01 08:09:46;;;;;;;2.58;0.70;;;;;;;;;;1839429;76;26290;-46
2022/05/01 08:12:14;;;;;;;1.40;0.60;;;;;;;;;;1836945;76;26304;-46
2022/05/01 08:14:44;;;;;;;1.40;0.70;;;;;;;;;;1842717;76;26323;-49
2022/05/01 08:17:10;;;;;;;3.55;0.80;;;;;;;;;;1836057;76;26255;-43
2022/05/01 08:22:22;;;;;;;1.70;0.90;;;;;;;;;;1840117;76;26725;-47
2022/05/01 08:24:50;;;;;;;2.50;0.70;;;;;;;;;;1843516;77;26828;-48
2022/05/01 08:27:18;;;;;;;1.55;0.60;;;;;;;;;;1842372;76;26253;-46
2022/05/01 08:29:45;;;;;;;1.02;0.72;;;;;;;;;;1851801;76;26251;-48
2022/05/01 08:32:12;;;;;;;0.68;0.68;;;;;;;;;;1842034;77;26764;-46
2022/05/01 08:34:39;;;;;;;0.85;0.50;;;;;;;;;;1843245;78;26893;-49
2022/05/01 08:37:07;;;;;;;4.10;1.00;;;;;;;;;;1819752;76;26804;-50
2022/05/01 08:39:34;;;;;;;4.05;0.90;;;;;;;;;;1839296;76;26391;-43
2022/05/01 08:42:03;;;;;;;2.70;0.80;;;;;;;;;;1824795;76;26275;-46
2022/05/01 08:44:34;;;;;;;0.60;0.53;;;;;;;;;;1836316;76;26287;-48
2022/05/01 08:47:09;;;;;;;0.78;0.70;;;;;;;;;;1837453;76;26328;-47
2022/05/01 08:49:37;;;;;;;2.47;0.70;;;;;;;;;;1833326;76;26268;-45
2022/05/01 08:52:07;;;;;;;1.57;0.60;;;;;;;;;;1838805;76;26760;-45
2022/05/01 08:54:34;;;;;;;1.72;0.70;;;;;;;;;;1835632;76;26777;-48
2022/05/01 08:57:02;;;;;;;2.05;0.60;;;;;;;;;;1837594;76;26245;-44
2022/05/01 08:59:31;;;;;;;2.12;0.95;;;;;;;;;;1835986;76;26313;-46
2022/05/01 09:02:00;;;;;;;2.72;0.60;;;;;;;;;;1845958;76;26266;-45
2022/05/01 09:04:28;;;;;;;1.67;0.60;;;;;;;;;;1843064;78;26293;-46
2022/05/01 09:06:56;;;;;;;0.50;0.50;;;;;;;;;;1838404;76;26596;-41
2022/05/01 09:09:24;;;;;;;3.30;0.60;;;;;;;;;;1835844;76;26286;-42
2022/05/01 09:14:40;;;;;;;0.82;0.60;;;;;;;;;;1836649;76;26302;-48
2022/05/01 09:17:13;;;;;;;3.95;0.60;;;;;;;;;;1840562;76;26311;-43
2022/05/01 09:19:40;;;;;;;1.20;0.55;;;;;;;;;;1843633;77;26254;-43
2022/05/01 09:22:08;;;;;;;1.50;0.40;;;;;;;;;;1841806;77;26268;-45
2022/05/01 09:24:35;;;;;;;3.22;0.50;;;;;;;;;;1842415;76;26340;-44
2022/05/01 09:27:03;;;;;;;2.25;0.62;;;;;;;;;;1835889;77;26258;-46
2022/05/01 09:29:37;;;;;;;0.82;0.50;;;;;;;;;;1853982;76;26188;-40
2022/05/01 09:32:05;;;;;;;2.25;0.53;;;;;;;;;;1826441;76;26352;-42
2022/05/01 09:34:35;;;;;;;1.35;0.45;;;;;;;;;;1832275;76;26345;-44
2022/05/01 09:37:03;;;;;;;1.22;0.62;;;;;;;;;;1839169;76;26293;-43
2022/05/01 09:39:32;;;;;;;2.98;0.70;;;;;;;;;;1839655;78;26312;-42
2022/05/01 09:42:16;;;;;;;1.12;0.70;;;;;;;;;;1835488;77;26286;-42
2022/05/01 09:44:44;;;;;;;3.90;0.70;;;;;;;;;;1824855;78;26608;-48
2022/05/01 09:47:12;;;;;;;0.50;0.50;;;;;;;;;;1856336;76;26254;-41
2022/05/01 09:49:41;;;;;;;1.82;0.45;;;;;;;;;;1822159;76;26661;-41
2022/05/01 09:52:08;;;;;;;0.98;0.40;;;;;;;;;;1819364;78;26316;-44
2022/05/01 09:54:35;;;;;;;2.10;0.50;;;;;;;;;;1843572;76;26261;-45
2022/05/01 09:57:03;;;;;;;3.15;0.72;;;;;;;;;;1839820;76;26905;-48
2022/05/01 09:59:30;;;;;;;0.78;0.60;;;;;;;;;;1831677;78;26323;-46
2022/05/01 10:02:05;;;;;;;0.98;0.98;;;;;;;;;;1838747;76;27400;-45
2022/05/01 10:04:34;;;;;;;1.15;1.10;;;;;;;;;;1815786;76;27356;-44
2022/05/01 10:07:02;;;;;;;1.60;1.00;;;;;;;;;;1825121;76;26741;-43
2022/05/01 10:09:31;;;;;;;3.22;0.98;;;;;;;;;;1840146;76;26328;-43
2022/05/01 10:11:59;;;;;;;1.12;1.02;;;;;;;;;;1837010;78;26371;-44
2022/05/01 10:14:28;;;;;;;1.12;1.00;;;;;;;;;;1839330;78;26831;-42
2022/05/01 10:16:55;;;;;;;2.60;1.10;;;;;;;;;;1855096;76;26773;-44
2022/05/01 10:19:23;;;;;;;1.37;1.15;;;;;;;;;;1838415;76;26262;-45
2022/05/01 10:21:52;;;;;;;2.40;1.20;;;;;;;;;;1849275;76;26733;-47
2022/05/01 10:24:20;;;;;;;2.00;1.02;;;;;;;;;;1841812;76;26735;-44
2022/05/01 10:27:02;;;;;;;1.90;0.90;;;;;;;;;;1837365;78;26872;-46
2022/05/01 10:29:37;;;;;;;1.10;1.00;;;;;;;;;;1837357;76;26208;-44
2022/05/01 10:32:25;;;;;;;1.20;0.80;;;;;;;;;;1839659;76;26598;-44
2022/05/01 10:35:01;;;;;;;1.90;0.90;;;;;;;;;;1837848;76;26292;-44
2022/05/01 10:37:42;;;;;;;1.22;1.00;;;;;;;;;;1838076;77;26285;-47
2022/05/01 10:40:09;;;;;;;1.95;0.80;;;;;;;;;;1824377;78;26266;-44
2022/05/01 10:42:40;;;;;;;3.37;1.25;;;;;;;;;;1835302;76;26301;-46
2022/05/01 10:45:28;;;;;;;1.02;0.93;;;;;;;;;;1827220;78;26360;-44
2022/05/01 10:47:56;;;;;;;2.83;0.95;;;;;;;;;;1833708;78;26270;-44
2022/05/01 10:50:24;;;;;;;1.67;0.85;;;;;;;;;;1831431;77;27724;-43
2022/05/01 10:53:05;;;;;;;1.75;1.10;;;;;;;;;;1835874;76;26274;-44
2022/05/01 10:55:43;;;;;;;2.83;0.80;;;;;;;;;;1837592;78;26347;-45
2022/05/01 10:58:20;;;;;;;0.80;0.80;;;;;;;;;;1837381;78;26304;-48
2022/05/01 11:00:49;;;;;;;1.80;0.70;;;;;;;;;;1836490;78;26324;-45
2022/05/01 11:03:24;;;;;;;1.10;0.70;;;;;;;;;;1839394;78;26269;-47
2022/05/01 11:05:55;;;;;;;1.80;0.80;;;;;;;;;;1839686;76;26277;-45
2022/05/01 11:08:23;;;;;;;1.07;0.90;;;;;;;;;;1837998;77;26723;-45
2022/05/01 11:10:51;;;;;;;2.87;1.17;;;;;;;;;;1829818;78;26305;-46
2022/05/01 11:13:19;;;;;;;1.25;0.80;;;;;;;;;;1839339;77;26312;-46
2022/05/01 11:15:51;;;;;;;1.42;1.10;;;;;;;;;;1848888;76;26244;-45
2022/05/01 11:18:34;;;;;;;0.80;0.80;;;;;;;;;;1838060;76;26774;-45
2022/05/01 11:21:18;;;;;;;1.20;1.07;;;;;;;;;;1836075;78;26238;-46
2022/05/01 11:23:46;;;;;;;2.10;0.80;;;;;;;;;;1820619;78;26304;-44
2022/05/01 11:26:15;;;;;;;1.07;1.07;;;;;;;;;;1837262;78;26258;-44
2022/05/01 11:28:44;;;;;;;0.93;0.90;;;;;;;;;;1834853;78;26250;-44
2022/05/01 11:31:29;;;;;;;1.02;1.02;;;;;;;;;;1846581;76;26836;-44
2022/05/01 11:34:14;;;;;;;1.00;0.90;;;;;;;;;;1839511;77;26364;-44
2022/05/01 11:36:53;;;;;;;1.40;0.82;;;;;;;;;;1840591;77;26274;-46
2022/05/01 11:39:39;;;;;;;0.88;0.88;;;;;;;;;;1840983;77;26320;-45
2022/05/01 11:42:08;;;;;;;0.90;0.90;;;;;;;;;;1840344;77;26297;-47
2022/05/01 11:44:35;;;;;;;1.12;1.10;;;;;;;;;;1837176;77;26382;-44
2022/05/01 11:47:04;;;;;;;2.22;1.42;;;;;;;;;;1837797;77;26238;-44
2022/05/01 11:49:33;;;;;;;1.42;1.30;;;;;;;;;;1839251;77;26270;-44
2022/05/01 11:52:00;;;;;;;1.80;1.67;;;;;;;;;;1839320;76;26245;-44
2022/05/01 11:54:29;;;;;;;1.72;1.40;;;;;;;;;;1841097;76;26844;-48
2022/05/01 12:02:28;;;;;;;2.77;1.45;;;;;;;;;;1839458;77;26357;-47
2022/05/01 12:04:59;;;;;;;2.12;1.40;;;;;;;;;;1842757;76;26547;-46
2022/05/01 12:07:26;;;;;;;1.92;1.70;;;;;;;;;;1839138;77;26242;-44
2022/05/01 12:09:53;;;;;;;2.33;1.55;;;;;;;;;;1837945;77;26286;-45
2022/05/01 12:12:21;;;;;;;1.67;1.37;;;;;;;;;;1839757;77;26956;-45
2022/05/01 12:14:49;;;;;;;1.98;1.77;;;;;;;;;;1840081;77;26296;-44
2022/05/01 12:17:18;;;;;;;2.45;1.70;;;;;;;;;;1836213;76;26263;-45
2022/05/01 12:19:47;;;;;;;1.92;1.82;;;;;;;;;;1838156;77;26293;-46
2022/05/01 12:22:19;;;;;;;2.50;1.62;;;;;;;;;;1839434;77;26211;-46
2022/05/01 12:24:47;;;;;;;2.60;1.90;;;;;;;;;;1840790;77;26370;-47
2022/05/01 12:27:15;;;;;;;3.20;1.90;;;;;;;;;;1844332;76;26328;-44
2022/05/01 12:29:49;;;;;;;2.00;1.80;;;;;;;;;;1839133;76;26317;-45
2022/05/01 12:32:17;;;;;;;1.70;1.60;;;;;;;;;;1839637;76;26685;-46
2022/05/01 12:34:46;;;;;;;2.45;1.95;;;;;;;;;;1838528;76;26344;-46
2022/05/01 12:37:15;;;;;;;2.05;1.60;;;;;;;;;;1837802;76;26718;-45
2022/05/01 12:39:43;;;;;;;2.77;1.67;;;;;;;;;;1806449;78;26835;-45
2022/05/01 12:45:11;;;;;;;2.12;1.55;;;;;;;;;;1841859;76;26920;-45
2022/05/01 12:47:45;;;;;;;1.90;1.50;;;;;;;;;;1838937;76;26258;-45
2022/05/01 12:50:21;;;;;;;1.70;1.60;;;;;;;;;;1840177;76;27142;-46
2022/05/01 12:52:49;;;;;;;1.70;1.60;;;;;;;;;;1839346;76;26254;-46
2022/05/01 12:55:18;;;;;;;1.60;1.50;;;;;;;;;;1842560;76;26297;-46
2022/05/01 12:57:58;;;;;;;1.45;1.35;;;;;;;;;;1840730;76;27146;-46
2022/05/01 13:00:29;;;;;;;1.82;1.50;;;;;;;;;;1842378;76;26336;-45
2022/05/01 13:03:16;;;;;;;1.60;1.50;;;;;;;;;;1840641;76;26659;-47
2022/05/01 13:05:45;;;;;;;1.60;1.50;;;;;;;;;;1840158;76;26702;-46
2022/05/01 13:08:19;;;;;;;1.50;1.40;;;;;;;;;;1838384;76;26657;-45
2022/05/01 13:11:04;;;;;;;1.50;1.40;;;;;;;;;;1839900;76;26724;-44
2022/05/01 13:13:50;;;;;;;1.50;1.40;;;;;;;;;;1839693;76;26262;-47
2022/05/01 13:16:20;;;;;;;1.55;1.32;;;;;;;;;;1836076;76;26664;-46
2022/05/01 13:18:48;;;;;;;1.92;1.30;;;;;;;;;;1839233;76;26359;-45
2022/05/01 13:21:15;;;;;;;1.32;1.30;;;;;;;;;;1840754;77;26864;-44
2022/05/01 13:23:42;;;;;;;1.40;1.30;;;;;;;;;;1844174;76;26788;-46
2022/05/01 13:26:10;;;;;;;1.17;1.17;;;;;;;;;;1837622;77;26281;-43
2022/05/01 13:28:37;;;;;;;1.27;1.27;;;;;;;;;;1840385;77;26270;-43
2022/05/01 13:31:04;;;;;;;1.20;1.20;;;;;;;;;;1837577;76;26702;-45
2022/05/01 13:33:32;;;;;;;1.60;1.30;;;;;;;;;;1838870;77;26250;-47
2022/05/01 13:35:59;;;;;;;1.20;1.20;;;;;;;;;;1843822;76;26655;-45
2022/05/01 13:46:47;;;;;;;0.95;0.95;;;;;;;;;;1946597;72;26912;-46
2022/05/01 13:49:15;;;;;;;1.00;1.00;;;;;;;;;;1935555;72;26700;-44
2022/05/01 13:51:42;;;;;;;1.02;1.02;;;;;;;;;;1941446;72;27634;-46
2022/05/01 13:54:09;;;;;;;1.35;0.90;;;;;;;;;;1935127;72;26309;-47
2022/05/01 13:56:38;;;;;;;1.00;1.00;;;;;;;;;;1936320;72;26311;-45
2022/05/01 13:59:05;;;;;;;1.00;1.00;;;;;;;;;;1938205;72;26588;-44
2022/05/01 14:01:33;;;;;;;1.00;1.00;;;;;;;;;;1938532;72;26205;-45
2022/05/01 14:04:02;;;;;;;1.00;0.88;;;;;;;;;;1941456;72;26636;-48
2022/05/01 14:06:30;;;;;;;0.90;0.90;;;;;;;;;;1935985;72;26554;-48
2022/05/01 14:08:58;;;;;;;1.22;0.80;;;;;;;;;;1936545;72;26360;-44
2022/05/01 14:11:29;;;;;;;0.78;0.78;;;;;;;;;;1908621;74;27412;-48
2022/05/01 14:13:57;;;;;;;0.80;0.80;;;;;;;;;;1913568;74;26599;-47
2022/05/01 14:16:25;;;;;;;2.02;1.00;;;;;;;;;;1909145;74;26828;-44
2022/05/01 14:18:54;;;;;;;1.10;0.90;;;;;;;;;;1913431;73;26239;-47
2022/05/01 14:21:21;;;;;;;1.80;0.80;;;;;;;;;;1912230;74;26331;-48
2022/05/01 14:23:48;;;;;;;0.70;0.70;;;;;;;;;;1912539;74;26353;-51
2022/05/01 14:26:16;;;;;;;0.98;0.88;;;;;;;;;;1912105;74;26790;-48
2022/05/01 14:28:44;;;;;;;1.45;0.80;;;;;;;;;;1913083;74;26323;-49
2022/05/01 14:31:13;;;;;;;0.70;0.70;;;;;;;;;;1912154;74;26190;-46
2022/05/01 14:33:42;;;;;;;0.75;0.75;;;;;;;;;;1916769;74;26281;-47
2022/05/01 14:36:10;;;;;;;0.80;0.75;;;;;;;;;;1913628;74;26282;-52
2022/05/01 14:38:39;;;;;;;1.30;0.80;;;;;;;;;;1917945;74;26266;-47
2022/05/01 14:41:08;;;;;;;0.70;0.70;;;;;;;;;;1913985;74;26302;-45
2022/05/01 14:43:39;;;;;;;0.78;0.78;;;;;;;;;;1902716;74;26285;-47
2022/05/01 14:46:08;;;;;;;1.27;0.80;;;;;;;;;;1902946;73;26833;-50
2022/05/01 14:48:44;;;;;;;0.68;0.68;;;;;;;;;;1912950;73;26737;-46
2022/05/01 14:51:16;;;;;;;1.85;0.60;;;;;;;;;;1908411;74;26679;-48
2022/05/01 14:53:41;;;;;;;0.60;0.60;;;;;;;;;;1916398;73;26386;-48
2022/05/01 14:56:17;;;;;;;0.90;0.70;;;;;;;;;;1912268;74;26250;-46
2022/05/01 15:07:05;;;;;;;0.60;0.60;;;;;;;;;;1910308;74;27010;-50
2022/05/01 15:09:35;;;;;;;1.50;0.65;;;;;;;;;;1913963;74;26343;-47
2022/05/01 15:12:16;;;;;;;0.60;0.60;;;;;;;;;;1914718;74;26368;-49
2022/05/01 15:14:48;;;;;;;0.50;0.50;;;;;;;;;;1905880;74;26278;-48
2022/05/01 15:17:31;;;;;;;0.50;0.50;;;;;;;;;;1915965;74;26353;-48
2022/05/01 15:23:07;;;;;;;0.65;0.65;;;;;;;;;;1847072;76;26354;-50
2022/05/01 15:26:01;;;;;;;0.47;0.47;;;;;;;;;;1845463;76;26382;-45
2022/05/01 15:28:31;;;;;;;0.57;0.57;;;;;;;;;;1797430;78;26363;-49
2022/05/01 15:30:59;;;;;;;0.50;0.50;;;;;;;;;;1838370;76;26336;-50
2022/05/01 15:36:17;;;;;;;0.50;0.50;;;;;;;;;;1911809;74;26351;-48
2022/05/01 15:39:04;;;;;;;0.60;0.60;;;;;;;;;;1915726;74;26383;-48
2022/05/01 15:41:33;;;;;;;0.62;0.60;;;;;;;;;;1921363;73;26360;-45
2022/05/01 15:44:08;;;;;;;1.70;0.55;;;;;;;;;;1916540;73;26828;-42